North Branch, Minnesota
Current Conditions -  °F | °C
As of 6:15 PM on Wednesday 28 Jan 2015 (Local Time) from KROS Reporting Station
Overcast Overcast  
Wind Chill: 30°   Ceiling: 1100
Heat Index: 30°   Visibility: 10mi
Dew Point: 26°   Wind: 0mph
Humidity: 85%   Direction: NA
Pressure: 29.83"   Gusts: NA
Location:  45.51°N, 92.98°W
Report Text: KROS 290015Z AUTO 00000KT 10SM OVC011 M01/M03 A2983 RMK AO2 T10101033
Loading
Personal Weather Stations






























Interactive Weather Map New forecast layout! Learn more

10-Day Weather Forecast

Advertisements
Track Severe Weather on mobile